sensor_id;sensor_type;location;lat;lon;timestamp;temperature;humidity
6843;DHT22;3460;52.028;8.916;2024-01-15T00:00:54;1.40;99.90
6843;DHT22;3460;52.028;8.916;2024-01-15T00:03:22;1.50;99.90
6843;DHT22;3460;52.028;8.916;2024-01-15T00:05:49;1.40;99.90
6843;DHT22;3460;52.028;8.916;2024-01-15T00:08:16;1.50;99.90
6843;DHT22;3460;52.028;8.916;2024-01-15T00:10:43;1.50;99.90
6843;DHT22;3460;52.028;8.916;2024-01-15T00:13:09;1.50;99.90
6843;DHT22;3460;52.028;8.916;2024-01-15T00:15:36;1.50;99.90
6843;DHT22;3460;52.028;8.916;2024-01-15T00:18:03;1.50;99.90
6843;DHT22;3460;52.028;8.916;2024-01-15T00:20:31;1.50;99.90
6843;DHT22;3460;52.028;8.916;2024-01-15T00:22:58;1.50;99.90
6843;DHT22;3460;52.028;8.916;2024-01-15T00:25:25;1.50;99.90
6843;DHT22;3460;52.028;8.916;2024-01-15T00:27:51;1.50;99.90
6843;DHT22;3460;52.028;8.916;2024-01-15T00:30:18;1.50;99.90
6843;DHT22;3460;52.028;8.916;2024-01-15T00:32:45;1.50;99.90
6843;DHT22;3460;52.028;8.916;2024-01-15T00:35:12;1.50;99.90
6843;DHT22;3460;52.028;8.916;2024-01-15T00:37:40;1.60;99.90
6843;DHT22;3460;52.028;8.916;2024-01-15T00:40:08;1.60;99.90
6843;DHT22;3460;52.028;8.916;2024-01-15T00:42:34;1.50;99.90
6843;DHT22;3460;52.028;8.916;2024-01-15T00:45:01;1.50;99.90
6843;DHT22;3460;52.028;8.916;2024-01-15T00:47:28;1.50;99.90
6843;DHT22;3460;52.028;8.916;2024-01-15T00:49:55;1.50;99.90
6843;DHT22;3460;52.028;8.916;2024-01-15T00:52:22;1.50;99.90
6843;DHT22;3460;52.028;8.916;2024-01-15T00:54:50;1.40;99.90
6843;DHT22;3460;52.028;8.916;2024-01-15T00:57:16;1.40;99.90
6843;DHT22;3460;52.028;8.916;2024-01-15T00:59:44;1.30;99.90
6843;DHT22;3460;52.028;8.916;2024-01-15T01:02:11;1.40;99.90
6843;DHT22;3460;52.028;8.916;2024-01-15T01:04:38;1.40;99.90
6843;DHT22;3460;52.028;8.916;2024-01-15T01:07:04;1.40;99.90
6843;DHT22;3460;52.028;8.916;2024-01-15T01:09:31;1.40;99.90
6843;DHT22;3460;52.028;8.916;2024-01-15T01:11:59;1.40;99.90
6843;DHT22;3460;52.028;8.916;2024-01-15T01:14:26;1.40;99.90
6843;DHT22;3460;52.028;8.916;2024-01-15T01:16:53;1.50;99.90
6843;DHT22;3460;52.028;8.916;2024-01-15T01:19:20;1.50;99.90
6843;DHT22;3460;52.028;8.916;2024-01-15T01:21:46;1.50;99.90
6843;DHT22;3460;52.028;8.916;2024-01-15T01:24:13;1.50;99.90
6843;DHT22;3460;52.028;8.916;2024-01-15T01:26:40;1.60;99.90
6843;DHT22;3460;52.028;8.916;2024-01-15T01:29:08;1.60;99.90
6843;DHT22;3460;52.028;8.916;2024-01-15T01:31:35;1.60;99.90
6843;DHT22;3460;52.028;8.916;2024-01-15T01:34:01;1.60;99.90
6843;DHT22;3460;52.028;8.916;2024-01-15T01:36:28;1.60;99.90
6843;DHT22;3460;52.028;8.916;2024-01-15T01:38:55;1.60;99.90
6843;DHT22;3460;52.028;8.916;2024-01-15T01:41:22;1.70;99.90
6843;DHT22;3460;52.028;8.916;2024-01-15T01:43:49;1.70;99.90
6843;DHT22;3460;52.028;8.916;2024-01-15T01:46:17;1.70;99.90
6843;DHT22;3460;52.028;8.916;2024-01-15T01:48:44;1.70;99.90
6843;DHT22;3460;52.028;8.916;2024-01-15T01:51:11;1.70;99.90
6843;DHT22;3460;52.028;8.916;2024-01-15T01:53:38;1.70;99.90
6843;DHT22;3460;52.028;8.916;2024-01-15T01:56:06;1.70;99.90
6843;DHT22;3460;52.028;8.916;2024-01-15T01:58:33;1.70;99.90
6843;DHT22;3460;52.028;8.916;2024-01-15T02:01:00;1.70;99.90
6843;DHT22;3460;52.028;8.916;2024-01-15T02:03:30;1.70;99.90
6843;DHT22;3460;52.028;8.916;2024-01-15T02:05:57;1.70;99.90
6843;DHT22;3460;52.028;8.916;2024-01-15T02:08:25;1.70;99.90
6843;DHT22;3460;52.028;8.916;2024-01-15T02:10:52;1.70;99.90
6843;DHT22;3460;52.028;8.916;2024-01-15T02:13:20;1.70;99.90
6843;DHT22;3460;52.028;8.916;2024-01-15T02:15:47;1.70;99.90
6843;DHT22;3460;52.028;8.916;2024-01-15T02:18:14;1.70;99.90
6843;DHT22;3460;52.028;8.916;2024-01-15T02:20:42;1.70;99.90
6843;DHT22;3460;52.028;8.916;2024-01-15T02:23:12;1.70;99.90
6843;DHT22;3460;52.028;8.916;2024-01-15T02:25:40;1.70;99.90
6843;DHT22;3460;52.028;8.916;2024-01-15T02:28:08;1.70;99.90
6843;DHT22;3460;52.028;8.916;2024-01-15T02:30:37;1.70;99.90
6843;DHT22;3460;52.028;8.916;2024-01-15T02:33:04;1.70;99.90
6843;DHT22;3460;52.028;8.916;2024-01-15T02:35:31;1.80;99.90
6843;DHT22;3460;52.028;8.916;2024-01-15T02:37:58;1.80;99.90
6843;DHT22;3460;52.028;8.916;2024-01-15T02:40:26;1.80;99.90
6843;DHT22;3460;52.028;8.916;2024-01-15T02:42:53;1.70;99.90
6843;DHT22;3460;52.028;8.916;2024-01-15T02:45:20;1.80;99.90
6843;DHT22;3460;52.028;8.916;2024-01-15T02:47:47;1.70;99.90
6843;DHT22;3460;52.028;8.916;2024-01-15T02:50:14;1.70;99.90
6843;DHT22;3460;52.028;8.916;2024-01-15T02:52:41;1.70;99.90
6843;DHT22;3460;52.028;8.916;2024-01-15T02:55:09;1.70;99.90
6843;DHT22;3460;52.028;8.916;2024-01-15T02:57:37;1.70;99.90
6843;DHT22;3460;52.028;8.916;2024-01-15T03:00:04;1.80;99.90
6843;DHT22;3460;52.028;8.916;2024-01-15T03:02:32;1.80;99.90
6843;DHT22;3460;52.028;8.916;2024-01-15T03:04:59;1.80;99.90
6843;DHT22;3460;52.028;8.916;2024-01-15T03:07:27;1.70;99.90
6843;DHT22;3460;52.028;8.916;2024-01-15T03:09:54;1.70;99.90
6843;DHT22;3460;52.028;8.916;2024-01-15T03:12:21;1.70;99.90
6843;DHT22;3460;52.028;8.916;2024-01-15T03:14:49;1.70;99.90
6843;DHT22;3460;52.028;8.916;2024-01-15T03:17:15;1.70;99.90
6843;DHT22;3460;52.028;8.916;2024-01-15T03:19:42;1.70;99.90
6843;DHT22;3460;52.028;8.916;2024-01-15T03:22:09;1.70;99.90
6843;DHT22;3460;52.028;8.916;2024-01-15T03:24:36;1.70;99.90
6843;DHT22;3460;52.028;8.916;2024-01-15T03:27:03;1.70;99.90
6843;DHT22;3460;52.028;8.916;2024-01-15T03:29:30;1.70;99.90
6843;DHT22;3460;52.028;8.916;2024-01-15T03:31:58;1.70;99.90
6843;DHT22;3460;52.028;8.916;2024-01-15T03:34:25;1.70;99.90
6843;DHT22;3460;52.028;8.916;2024-01-15T03:36:52;1.70;99.90
6843;DHT22;3460;52.028;8.916;2024-01-15T03:39:18;1.70;99.90
6843;DHT22;3460;52.028;8.916;2024-01-15T03:41:45;1.70;99.90
6843;DHT22;3460;52.028;8.916;2024-01-15T03:44:12;1.80;99.90
6843;DHT22;3460;52.028;8.916;2024-01-15T03:46:39;1.80;99.90
6843;DHT22;3460;52.028;8.916;2024-01-15T03:49:07;1.80;99.90
6843;DHT22;3460;52.028;8.916;2024-01-15T03:51:34;1.80;99.90
6843;DHT22;3460;52.028;8.916;2024-01-15T03:54:00;1.80;99.90
6843;DHT22;3460;52.028;8.916;2024-01-15T03:56:27;1.80;99.90
6843;DHT22;3460;52.028;8.916;2024-01-15T03:58:54;1.80;99.90
6843;DHT22;3460;52.028;8.916;2024-01-15T04:01:21;1.80;99.90
6843;DHT22;3460;52.028;8.916;2024-01-15T04:03:47;1.80;99.90
6843;DHT22;3460;52.028;8.916;2024-01-15T04:06:15;1.80;99.90
6843;DHT22;3460;52.028;8.916;2024-01-15T04:08:42;1.70;99.90
6843;DHT22;3460;52.028;8.916;2024-01-15T04:11:09;1.70;99.90
6843;DHT22;3460;52.028;8.916;2024-01-15T04:13:36;1.70;99.90
6843;DHT22;3460;52.028;8.916;2024-01-15T04:16:03;1.80;99.90
6843;DHT22;3460;52.028;8.916;2024-01-15T04:18:30;1.70;99.90
6843;DHT22;3460;52.028;8.916;2024-01-15T04:20:57;1.80;99.90
6843;DHT22;3460;52.028;8.916;2024-01-15T04:23:25;1.70;99.90
6843;DHT22;3460;52.028;8.916;2024-01-15T04:25:51;1.70;99.90
6843;DHT22;3460;52.028;8.916;2024-01-15T04:28:18;1.80;99.90
6843;DHT22;3460;52.028;8.916;2024-01-15T04:30:45;1.70;99.90
6843;DHT22;3460;52.028;8.916;2024-01-15T04:33:12;1.70;99.90
6843;DHT22;3460;52.028;8.916;2024-01-15T04:35:38;1.70;99.90
6843;DHT22;3460;52.028;8.916;2024-01-15T04:38:05;1.70;99.90
6843;DHT22;3460;52.028;8.916;2024-01-15T04:40:33;1.80;99.90
6843;DHT22;3460;52.028;8.916;2024-01-15T04:43:00;1.80;99.90
6843;DHT22;3460;52.028;8.916;2024-01-15T04:45:27;1.80;99.90
6843;DHT22;3460;52.028;8.916;2024-01-15T04:47:54;1.80;99.90
6843;DHT22;3460;52.028;8.916;2024-01-15T04:50:22;1.80;99.90
6843;DHT22;3460;52.028;8.916;2024-01-15T04:52:49;1.80;99.90
6843;DHT22;3460;52.028;8.916;2024-01-15T04:55:16;1.90;99.90
6843;DHT22;3460;52.028;8.916;2024-01-15T04:57:44;1.80;99.90
6843;DHT22;3460;52.028;8.916;2024-01-15T05:00:12;1.80;99.90
6843;DHT22;3460;52.028;8.916;2024-01-15T05:02:40;1.80;99.90
6843;DHT22;3460;52.028;8.916;2024-01-15T05:05:06;1.80;99.90
6843;DHT22;3460;52.028;8.916;2024-01-15T05:07:33;1.80;99.90
6843;DHT22;3460;52.028;8.916;2024-01-15T05:10:00;1.80;99.90
6843;DHT22;3460;52.028;8.916;2024-01-15T05:12:27;1.80;99.90
6843;DHT22;3460;52.028;8.916;2024-01-15T05:14:55;1.90;99.90
6843;DHT22;3460;52.028;8.916;2024-01-15T05:17:22;1.90;99.90
6843;DHT22;3460;52.028;8.916;2024-01-15T05:19:48;1.90;99.90
6843;DHT22;3460;52.028;8.916;2024-01-15T05:22:15;1.90;99.90
6843;DHT22;3460;52.028;8.916;2024-01-15T05:24:42;1.90;99.90
6843;DHT22;3460;52.028;8.916;2024-01-15T05:27:09;1.80;99.90
6843;DHT22;3460;52.028;8.916;2024-01-15T05:29:35;1.80;99.90
6843;DHT22;3460;52.028;8.916;2024-01-15T05:32:04;1.80;99.90
6843;DHT22;3460;52.028;8.916;2024-01-15T05:34:30;1.80;99.90
6843;DHT22;3460;52.028;8.916;2024-01-15T05:36:57;1.80;99.90
6843;DHT22;3460;52.028;8.916;2024-01-15T05:39:24;1.80;99.90
6843;DHT22;3460;52.028;8.916;2024-01-15T05:41:51;1.80;99.90
6843;DHT22;3460;52.028;8.916;2024-01-15T05:44:17;1.80;99.90
6843;DHT22;3460;52.028;8.916;2024-01-15T05:46:44;1.80;99.90
6843;DHT22;3460;52.028;8.916;2024-01-15T05:49:12;1.70;99.90
6843;DHT22;3460;52.028;8.916;2024-01-15T05:51:39;1.80;99.90
6843;DHT22;3460;52.028;8.916;2024-01-15T05:54:05;1.80;99.90
6843;DHT22;3460;52.028;8.916;2024-01-15T05:56:32;1.80;99.90
6843;DHT22;3460;52.028;8.916;2024-01-15T05:58:58;1.70;99.90
6843;DHT22;3460;52.028;8.916;2024-01-15T06:01:25;1.70;99.90
6843;DHT22;3460;52.028;8.916;2024-01-15T06:03:52;1.70;99.90
6843;DHT22;3460;52.028;8.916;2024-01-15T06:06:20;1.70;99.90
6843;DHT22;3460;52.028;8.916;2024-01-15T06:08:47;1.70;99.90
6843;DHT22;3460;52.028;8.916;2024-01-15T06:11:14;1.70;99.90
6843;DHT22;3460;52.028;8.916;2024-01-15T06:13:41;1.70;99.90
6843;DHT22;3460;52.028;8.916;2024-01-15T06:16:13;1.70;99.90
6843;DHT22;3460;52.028;8.916;2024-01-15T06:18:40;1.70;99.90
6843;DHT22;3460;52.028;8.916;2024-01-15T06:21:06;1.70;99.90
6843;DHT22;3460;52.028;8.916;2024-01-15T06:23:34;1.60;99.90
6843;DHT22;3460;52.028;8.916;2024-01-15T06:26:01;1.70;99.90
6843;DHT22;3460;52.028;8.916;2024-01-15T06:28:29;1.70;99.90
6843;DHT22;3460;52.028;8.916;2024-01-15T06:30:56;1.70;99.90
6843;DHT22;3460;52.028;8.916;2024-01-15T06:33:23;1.70;99.90
6843;DHT22;3460;52.028;8.916;2024-01-15T06:35:50;1.70;99.90
6843;DHT22;3460;52.028;8.916;2024-01-15T06:38:17;1.70;99.90
6843;DHT22;3460;52.028;8.916;2024-01-15T06:40:45;1.70;99.90
6843;DHT22;3460;52.028;8.916;2024-01-15T06:43:14;1.60;99.90
6843;DHT22;3460;52.028;8.916;2024-01-15T06:45:40;1.60;99.90
6843;DHT22;3460;52.028;8.916;2024-01-15T06:48:07;1.60;99.90
6843;DHT22;3460;52.028;8.916;2024-01-15T06:50:34;1.60;99.90
6843;DHT22;3460;52.028;8.916;2024-01-15T06:53:01;1.60;99.90
6843;DHT22;3460;52.028;8.916;2024-01-15T06:55:28;1.60;99.90
6843;DHT22;3460;52.028;8.916;2024-01-15T06:57:56;1.70;99.90
6843;DHT22;3460;52.028;8.916;2024-01-15T07:00:22;1.70;99.90
6843;DHT22;3460;52.028;8.916;2024-01-15T07:02:49;1.70;99.90
6843;DHT22;3460;52.028;8.916;2024-01-15T07:05:16;1.60;99.90
6843;DHT22;3460;52.028;8.916;2024-01-15T07:07:43;1.60;99.90
6843;DHT22;3460;52.028;8.916;2024-01-15T07:10:10;1.60;99.90
6843;DHT22;3460;52.028;8.916;2024-01-15T07:12:36;1.60;99.90
6843;DHT22;3460;52.028;8.916;2024-01-15T07:15:05;1.60;99.90
6843;DHT22;3460;52.028;8.916;2024-01-15T07:17:33;1.50;99.90
6843;DHT22;3460;52.028;8.916;2024-01-15T07:20:00;1.50;99.90
6843;DHT22;3460;52.028;8.916;2024-01-15T07:22:27;1.50;99.90
6843;DHT22;3460;52.028;8.916;2024-01-15T07:24:55;1.50;99.90
6843;DHT22;3460;52.028;8.916;2024-01-15T07:27:21;1.50;99.90
6843;DHT22;3460;52.028;8.916;2024-01-15T07:29:48;1.50;99.90
6843;DHT22;3460;52.028;8.916;2024-01-15T07:32:16;1.50;99.90
6843;DHT22;3460;52.028;8.916;2024-01-15T07:34:43;1.50;99.90
6843;DHT22;3460;52.028;8.916;2024-01-15T07:37:10;1.50;99.90
6843;DHT22;3460;52.028;8.916;2024-01-15T07:39:37;1.50;99.90
6843;DHT22;3460;52.028;8.916;2024-01-15T07:42:04;1.50;99.90
6843;DHT22;3460;52.028;8.916;2024-01-15T07:44:31;1.40;99.90
6843;DHT22;3460;52.028;8.916;2024-01-15T07:46:58;1.40;99.90
6843;DHT22;3460;52.028;8.916;2024-01-15T07:49:26;1.40;99.90
6843;DHT22;3460;52.028;8.916;2024-01-15T07:51:52;1.40;99.90
6843;DHT22;3460;52.028;8.916;2024-01-15T07:54:19;1.40;99.90
6843;DHT22;3460;52.028;8.916;2024-01-15T07:56:56;1.40;99.90
6843;DHT22;3460;52.028;8.916;2024-01-15T07:59:24;1.50;99.90
6843;DHT22;3460;52.028;8.916;2024-01-15T08:01:51;1.50;99.90
6843;DHT22;3460;52.028;8.916;2024-01-15T08:04:18;1.40;99.90
6843;DHT22;3460;52.028;8.916;2024-01-15T08:06:46;1.40;99.90
6843;DHT22;3460;52.028;8.916;2024-01-15T08:09:13;1.40;99.90
6843;DHT22;3460;52.028;8.916;2024-01-15T08:11:40;1.40;99.90
6843;DHT22;3460;52.028;8.916;2024-01-15T08:14:08;1.50;99.90
6843;DHT22;3460;52.028;8.916;2024-01-15T08:16:35;1.50;99.90
6843;DHT22;3460;52.028;8.916;2024-01-15T08:19:01;1.50;99.90
6843;DHT22;3460;52.028;8.916;2024-01-15T08:21:28;1.50;99.90
6843;DHT22;3460;52.028;8.916;2024-01-15T08:23:59;1.60;99.90
6843;DHT22;3460;52.028;8.916;2024-01-15T08:26:26;1.60;99.90
6843;DHT22;3460;52.028;8.916;2024-01-15T08:28:53;1.60;99.90
6843;DHT22;3460;52.028;8.916;2024-01-15T08:31:19;1.50;99.90
6843;DHT22;3460;52.028;8.916;2024-01-15T08:33:46;1.60;99.90
6843;DHT22;3460;52.028;8.916;2024-01-15T08:36:13;1.60;99.90
6843;DHT22;3460;52.028;8.916;2024-01-15T08:38:40;1.60;99.90
6843;DHT22;3460;52.028;8.916;2024-01-15T08:41:08;1.50;99.90
6843;DHT22;3460;52.028;8.916;2024-01-15T08:43:35;1.60;99.90
6843;DHT22;3460;52.028;8.916;2024-01-15T08:46:03;1.60;99.90
6843;DHT22;3460;52.028;8.916;2024-01-15T08:48:29;1.60;99.90
6843;DHT22;3460;52.028;8.916;2024-01-15T08:50:57;1.60;99.90
6843;DHT22;3460;52.028;8.916;2024-01-15T08:53:24;1.60;99.90
6843;DHT22;3460;52.028;8.916;2024-01-15T08:55:51;1.60;99.90
6843;DHT22;3460;52.028;8.916;2024-01-15T08:58:19;1.60;99.90
6843;DHT22;3460;52.028;8.916;2024-01-15T09:00:46;1.50;99.90
6843;DHT22;3460;52.028;8.916;2024-01-15T09:03:13;1.60;99.90
6843;DHT22;3460;52.028;8.916;2024-01-15T09:05:39;1.60;99.90
6843;DHT22;3460;52.028;8.916;2024-01-15T09:08:08;1.60;99.90
6843;DHT22;3460;52.028;8.916;2024-01-15T09:10:35;1.60;99.90
6843;DHT22;3460;52.028;8.916;2024-01-15T09:13:01;1.60;99.90
6843;DHT22;3460;52.028;8.916;2024-01-15T09:15:31;1.70;99.90
6843;DHT22;3460;52.028;8.916;2024-01-15T09:17:58;1.70;99.90
6843;DHT22;3460;52.028;8.916;2024-01-15T09:20:25;1.70;99.90
6843;DHT22;3460;52.028;8.916;2024-01-15T09:22:52;1.70;99.90
6843;DHT22;3460;52.028;8.916;2024-01-15T09:25:19;1.60;99.90
6843;DHT22;3460;52.028;8.916;2024-01-15T09:27:46;1.60;99.90
6843;DHT22;3460;52.028;8.916;2024-01-15T09:30:14;1.50;99.90
6843;DHT22;3460;52.028;8.916;2024-01-15T09:32:42;1.50;99.90
6843;DHT22;3460;52.028;8.916;2024-01-15T09:35:09;1.50;99.90
6843;DHT22;3460;52.028;8.916;2024-01-15T09:37:36;1.50;99.90
6843;DHT22;3460;52.028;8.916;2024-01-15T09:40:04;1.50;99.90
6843;DHT22;3460;52.028;8.916;2024-01-15T09:42:32;1.40;99.90
6843;DHT22;3460;52.028;8.916;2024-01-15T09:45:01;1.40;99.90
6843;DHT22;3460;52.028;8.916;2024-01-15T09:47:29;1.40;99.90
6843;DHT22;3460;52.028;8.916;2024-01-15T09:49:57;1.30;99.90
6843;DHT22;3460;52.028;8.916;2024-01-15T09:52:25;1.30;99.90
6843;DHT22;3460;52.028;8.916;2024-01-15T09:54:52;1.30;99.90
6843;DHT22;3460;52.028;8.916;2024-01-15T09:57:20;1.30;99.90
6843;DHT22;3460;52.028;8.916;2024-01-15T09:59:47;1.20;99.90
6843;DHT22;3460;52.028;8.916;2024-01-15T10:02:15;1.20;99.90
6843;DHT22;3460;52.028;8.916;2024-01-15T10:04:44;1.20;99.90
6843;DHT22;3460;52.028;8.916;2024-01-15T10:07:15;1.30;99.90
6843;DHT22;3460;52.028;8.916;2024-01-15T10:09:44;1.30;99.90
6843;DHT22;3460;52.028;8.916;2024-01-15T10:12:12;1.40;99.90
6843;DHT22;3460;52.028;8.916;2024-01-15T10:14:38;1.40;99.90
6843;DHT22;3460;52.028;8.916;2024-01-15T10:17:12;1.40;99.90
6843;DHT22;3460;52.028;8.916;2024-01-15T10:19:40;1.50;99.90
6843;DHT22;3460;52.028;8.916;2024-01-15T10:22:08;1.50;99.90
6843;DHT22;3460;52.028;8.916;2024-01-15T10:24:37;1.50;99.90
6843;DHT22;3460;52.028;8.916;2024-01-15T10:27:07;1.50;99.90
6843;DHT22;3460;52.028;8.916;2024-01-15T10:29:34;1.50;99.90
6843;DHT22;3460;52.028;8.916;2024-01-15T10:32:01;1.60;99.90
6843;DHT22;3460;52.028;8.916;2024-01-15T10:34:30;1.60;99.90
6843;DHT22;3460;52.028;8.916;2024-01-15T10:36:56;1.60;99.90
6843;DHT22;3460;52.028;8.916;2024-01-15T10:39:24;1.70;99.90
6843;DHT22;3460;52.028;8.916;2024-01-15T10:41:52;1.70;99.90
6843;DHT22;3460;52.028;8.916;2024-01-15T10:44:19;1.70;99.90
6843;DHT22;3460;52.028;8.916;2024-01-15T10:46:46;1.70;99.90
6843;DHT22;3460;52.028;8.916;2024-01-15T10:49:14;1.80;99.90
6843;DHT22;3460;52.028;8.916;2024-01-15T10:51:41;1.80;99.90
6843;DHT22;3460;52.028;8.916;2024-01-15T10:54:09;1.80;99.90
6843;DHT22;3460;52.028;8.916;2024-01-15T10:56:37;1.70;99.90
6843;DHT22;3460;52.028;8.916;2024-01-15T10:59:06;1.70;99.90
6843;DHT22;3460;52.028;8.916;2024-01-15T11:01:36;1.70;99.90
6843;DHT22;3460;52.028;8.916;2024-01-15T11:04:04;1.70;99.90
6843;DHT22;3460;52.028;8.916;2024-01-15T11:06:41;1.70;99.90
6843;DHT22;3460;52.028;8.916;2024-01-15T11:09:08;1.90;99.90
6843;DHT22;3460;52.028;8.916;2024-01-15T11:11:36;1.90;99.90
6843;DHT22;3460;52.028;8.916;2024-01-15T11:14:03;1.90;99.90
6843;DHT22;3460;52.028;8.916;2024-01-15T11:16:53;1.80;99.90
6843;DHT22;3460;52.028;8.916;2024-01-15T11:19:21;1.90;99.90
6843;DHT22;3460;52.028;8.916;2024-01-15T11:21:48;1.90;99.90
6843;DHT22;3460;52.028;8.916;2024-01-15T11:24:33;1.90;99.90
6843;DHT22;3460;52.028;8.916;2024-01-15T11:27:01;1.90;99.90
6843;DHT22;3460;52.028;8.916;2024-01-15T11:29:29;1.90;99.90
6843;DHT22;3460;52.028;8.916;2024-01-15T11:31:59;1.90;99.90
6843;DHT22;3460;52.028;8.916;2024-01-15T11:34:51;1.90;99.90
6843;DHT22;3460;52.028;8.916;2024-01-15T11:37:19;1.90;99.90
6843;DHT22;3460;52.028;8.916;2024-01-15T11:39:47;1.90;99.90
6843;DHT22;3460;52.028;8.916;2024-01-15T11:42:14;2.00;99.90
6843;DHT22;3460;52.028;8.916;2024-01-15T11:44:41;1.90;99.90
6843;DHT22;3460;52.028;8.916;2024-01-15T11:47:10;1.90;99.90
6843;DHT22;3460;52.028;8.916;2024-01-15T11:49:58;1.90;99.90
6843;DHT22;3460;52.028;8.916;2024-01-15T11:52:26;1.90;99.90
6843;DHT22;3460;52.028;8.916;2024-01-15T11:55:01;1.90;99.90
6843;DHT22;3460;52.028;8.916;2024-01-15T11:57:34;1.90;99.90
6843;DHT22;3460;52.028;8.916;2024-01-15T12:00:04;1.90;99.90
6843;DHT22;3460;52.028;8.916;2024-01-15T12:02:33;1.90;99.90
6843;DHT22;3460;52.028;8.916;2024-01-15T12:05:00;1.90;99.90
6843;DHT22;3460;52.028;8.916;2024-01-15T12:07:28;1.90;99.90
6843;DHT22;3460;52.028;8.916;2024-01-15T12:09:55;1.90;99.90
6843;DHT22;3460;52.028;8.916;2024-01-15T12:12:33;2.00;99.90
6843;DHT22;3460;52.028;8.916;2024-01-15T12:15:04;2.00;99.90
6843;DHT22;3460;52.028;8.916;2024-01-15T12:17:32;2.00;99.90
6843;DHT22;3460;52.028;8.916;2024-01-15T12:19:59;2.00;99.90
6843;DHT22;3460;52.028;8.916;2024-01-15T12:22:26;1.90;99.90
6843;DHT22;3460;52.028;8.916;2024-01-15T12:24:54;1.90;99.90
6843;DHT22;3460;52.028;8.916;2024-01-15T12:27:21;1.90;99.90
6843;DHT22;3460;52.028;8.916;2024-01-15T12:29:48;1.90;99.90
6843;DHT22;3460;52.028;8.916;2024-01-15T12:32:15;1.90;99.90
6843;DHT22;3460;52.028;8.916;2024-01-15T12:34:43;1.90;99.90
6843;DHT22;3460;52.028;8.916;2024-01-15T12:37:10;1.90;99.90
6843;DHT22;3460;52.028;8.916;2024-01-15T12:39:37;1.90;99.90
6843;DHT22;3460;52.028;8.916;2024-01-15T12:42:05;1.90;99.90
6843;DHT22;3460;52.028;8.916;2024-01-15T12:44:32;1.90;99.90
6843;DHT22;3460;52.028;8.916;2024-01-15T12:46:59;1.90;99.90
6843;DHT22;3460;52.028;8.916;2024-01-15T12:49:26;1.90;99.90
6843;DHT22;3460;52.028;8.916;2024-01-15T12:51:56;1.90;99.90
6843;DHT22;3460;52.028;8.916;2024-01-15T12:54:23;1.90;99.90
6843;DHT22;3460;52.028;8.916;2024-01-15T12:56:50;2.00;99.90
6843;DHT22;3460;52.028;8.916;2024-01-15T12:59:18;2.10;99.90
6843;DHT22;3460;52.028;8.916;2024-01-15T13:01:44;2.10;99.90
6843;DHT22;3460;52.028;8.916;2024-01-15T13:04:12;2.10;99.90
6843;DHT22;3460;52.028;8.916;2024-01-15T13:06:47;2.10;99.90
6843;DHT22;3460;52.028;8.916;2024-01-15T13:09:16;2.10;99.90
6843;DHT22;3460;52.028;8.916;2024-01-15T13:11:43;2.10;99.90
6843;DHT22;3460;52.028;8.916;2024-01-15T13:14:10;2.10;99.90
6843;DHT22;3460;52.028;8.916;2024-01-15T13:16:39;2.10;99.90
6843;DHT22;3460;52.028;8.916;2024-01-15T13:19:07;2.00;99.90
6843;DHT22;3460;52.028;8.916;2024-01-15T13:21:34;2.10;99.90
6843;DHT22;3460;52.028;8.916;2024-01-15T13:24:01;2.10;99.90
6843;DHT22;3460;52.028;8.916;2024-01-15T13:26:32;2.00;99.90
6843;DHT22;3460;52.028;8.916;2024-01-15T13:29:00;2.00;99.90
6843;DHT22;3460;52.028;8.916;2024-01-15T13:31:27;2.00;99.90
6843;DHT22;3460;52.028;8.916;2024-01-15T13:33:54;2.10;99.90
6843;DHT22;3460;52.028;8.916;2024-01-15T13:36:21;2.10;99.90
6843;DHT22;3460;52.028;8.916;2024-01-15T13:38:48;2.20;99.90
6843;DHT22;3460;52.028;8.916;2024-01-15T13:41:15;2.20;99.90
6843;DHT22;3460;52.028;8.916;2024-01-15T13:43:45;2.10;99.90
6843;DHT22;3460;52.028;8.916;2024-01-15T13:46:12;2.10;99.90
6843;DHT22;3460;52.028;8.916;2024-01-15T13:48:39;2.10;99.90
6843;DHT22;3460;52.028;8.916;2024-01-15T13:51:06;2.10;99.90
6843;DHT22;3460;52.028;8.916;2024-01-15T13:53:32;2.10;99.90
6843;DHT22;3460;52.028;8.916;2024-01-15T13:55:59;2.20;99.90
6843;DHT22;3460;52.028;8.916;2024-01-15T13:58:26;2.10;99.90
6843;DHT22;3460;52.028;8.916;2024-01-15T14:00:54;2.10;99.90
6843;DHT22;3460;52.028;8.916;2024-01-15T14:03:21;2.00;99.90
6843;DHT22;3460;52.028;8.916;2024-01-15T14:05:48;2.00;99.90
6843;DHT22;3460;52.028;8.916;2024-01-15T14:08:16;2.10;99.90
6843;DHT22;3460;52.028;8.916;2024-01-15T14:10:43;2.00;99.90
6843;DHT22;3460;52.028;8.916;2024-01-15T14:13:10;2.00;99.90
6843;DHT22;3460;52.028;8.916;2024-01-15T14:15:37;2.00;99.90
6843;DHT22;3460;52.028;8.916;2024-01-15T14:18:06;2.00;99.90
6843;DHT22;3460;52.028;8.916;2024-01-15T14:20:33;2.00;99.90
6843;DHT22;3460;52.028;8.916;2024-01-15T14:22:59;2.00;99.90
6843;DHT22;3460;52.028;8.916;2024-01-15T14:25:26;1.90;99.90
6843;DHT22;3460;52.028;8.916;2024-01-15T14:27:53;1.90;99.90
6843;DHT22;3460;52.028;8.916;2024-01-15T14:30:19;1.90;99.90
6843;DHT22;3460;52.028;8.916;2024-01-15T14:32:46;1.90;99.90
6843;DHT22;3460;52.028;8.916;2024-01-15T14:35:14;1.90;99.90
6843;DHT22;3460;52.028;8.916;2024-01-15T14:37:41;1.80;99.90
6843;DHT22;3460;52.028;8.916;2024-01-15T14:40:08;1.90;99.90
6843;DHT22;3460;52.028;8.916;2024-01-15T14:42:35;1.90;99.90
6843;DHT22;3460;52.028;8.916;2024-01-15T14:45:03;1.80;99.90
6843;DHT22;3460;52.028;8.916;2024-01-15T14:47:34;1.70;99.90
6843;DHT22;3460;52.028;8.916;2024-01-15T14:50:01;1.60;99.90
6843;DHT22;3460;52.028;8.916;2024-01-15T14:52:29;1.60;99.90
6843;DHT22;3460;52.028;8.916;2024-01-15T14:54:56;1.60;99.90
6843;DHT22;3460;52.028;8.916;2024-01-15T14:57:23;1.50;99.90
6843;DHT22;3460;52.028;8.916;2024-01-15T14:59:50;1.50;99.90
6843;DHT22;3460;52.028;8.916;2024-01-15T15:02:17;1.50;99.90
6843;DHT22;3460;52.028;8.916;2024-01-15T15:04:44;1.50;99.90
6843;DHT22;3460;52.028;8.916;2024-01-15T15:07:10;1.60;99.90
6843;DHT22;3460;52.028;8.916;2024-01-15T15:09:39;1.60;99.90
6843;DHT22;3460;52.028;8.916;2024-01-15T15:12:07;1.60;99.90
6843;DHT22;3460;52.028;8.916;2024-01-15T15:14:34;1.60;99.90
6843;DHT22;3460;52.028;8.916;2024-01-15T15:17:04;1.50;99.90
6843;DHT22;3460;52.028;8.916;2024-01-15T15:19:31;1.50;99.90
6843;DHT22;3460;52.028;8.916;2024-01-15T15:21:58;1.50;99.90
6843;DHT22;3460;52.028;8.916;2024-01-15T15:24:25;1.50;99.90
6843;DHT22;3460;52.028;8.916;2024-01-15T15:26:53;1.50;99.90
6843;DHT22;3460;52.028;8.916;2024-01-15T15:29:20;1.50;99.90
6843;DHT22;3460;52.028;8.916;2024-01-15T15:31:48;1.50;99.90
6843;DHT22;3460;52.028;8.916;2024-01-15T15:34:15;1.50;99.90
6843;DHT22;3460;52.028;8.916;2024-01-15T15:36:42;1.40;99.90
6843;DHT22;3460;52.028;8.916;2024-01-15T15:39:08;1.40;99.90
6843;DHT22;3460;52.028;8.916;2024-01-15T15:41:35;1.50;99.90
6843;DHT22;3460;52.028;8.916;2024-01-15T15:44:04;1.50;99.90
6843;DHT22;3460;52.028;8.916;2024-01-15T15:46:31;1.50;99.90
6843;DHT22;3460;52.028;8.916;2024-01-15T15:48:58;1.50;99.90
6843;DHT22;3460;52.028;8.916;2024-01-15T15:51:25;1.50;99.90
6843;DHT22;3460;52.028;8.916;2024-01-15T15:53:52;1.50;99.90
6843;DHT22;3460;52.028;8.916;2024-01-15T15:56:18;1.50;99.90
6843;DHT22;3460;52.028;8.916;2024-01-15T15:58:45;1.50;99.90
6843;DHT22;3460;52.028;8.916;2024-01-15T16:01:13;1.60;99.90
6843;DHT22;3460;52.028;8.916;2024-01-15T16:03:40;1.50;99.90
6843;DHT22;3460;52.028;8.916;2024-01-15T16:06:07;1.50;99.90
6843;DHT22;3460;52.028;8.916;2024-01-15T16:08:33;1.50;99.90
6843;DHT22;3460;52.028;8.916;2024-01-15T16:11:00;1.60;99.90
6843;DHT22;3460;52.028;8.916;2024-01-15T16:13:27;1.60;99.90
6843;DHT22;3460;52.028;8.916;2024-01-15T16:15:55;1.70;99.90
6843;DHT22;3460;52.028;8.916;2024-01-15T16:18:23;1.60;99.90